http://www.ohio.gov http://www.dot.state.oh.us
W W W . B U C K E Y E T R A F F I C . O R G

1-SR49 @ SR249 (200000) Status Air Temp Sfc Temp Sub Temp Dew Temp Wind Precip Traffic Updated
Sensor [A]: Atmospheric - 18.9 - - 11.3 4.3 / SE - - 11/21/2014 9:11:43 PM
Sensor [0]: SR49 NB Lane Dry - 25.7 - - - - 0 / 9.9 11/21/2014 9:11:43 PM
Sensor [1]: SR 249 EB Lane Dry - 23.9 - - - - 0 / 9.9 11/21/2014 9:11:43 PM
2-SR-309 @ SR-235 (200001) Status Air Temp Sfc Temp Sub Temp Dew Temp Wind Precip Traffic Updated
Sensor [A]: Atmospheric - 17.8 - - 10.4 2.5 / N - - 11/21/2014 9:11:12 PM
Sensor [0]: SR309 EB Ice Watch - 16.7 - - - - - 11/21/2014 9:11:12 PM
3-US24 @ Indiana Line (200002) Status Air Temp Sfc Temp Sub Temp Dew Temp Wind Precip Traffic Updated
Sensor [A]: Atmospheric - 14.7 - - 9.5 1.9 / SE - - 11/21/2014 9:11:46 PM
Sensor [0]: EB Driving Dry - 23.9 34.7 - - - 0 / 9.9 11/21/2014 9:11:46 PM
Sensor [1]: WB Driving Dry - 23.9 - - - - 0 / 9.9 11/21/2014 9:11:46 PM
4-US224 @ SR190 (200003) Status Air Temp Sfc Temp Sub Temp Dew Temp Wind Precip Traffic Updated
Sensor [A]: Atmospheric - 19.6 - - 10.8 1.2 / SE - - 11/21/2014 9:01:31 PM
Sensor [0]: Eastbound Driving Lane Trace Moisture - 16.2 - - - - 1 / 65.2 11/21/2014 9:01:31 PM
5- US30 @ SR49 North (200004) Status Air Temp Sfc Temp Sub Temp Dew Temp Wind Precip Traffic Updated
Sensor [A]: Atmospheric - 19.2 - - 11.3 5.0 / E - - 11/21/2014 9:12:24 PM
Sensor [0]: US30 Westbound Driving Dry - 25.7 - - - - 0 / 9.9 11/21/2014 9:12:24 PM
Sensor [1]: US30 Eastbound Driving Dry - 27.5 - - - - 0 / 9.9 11/21/2014 9:12:24 PM
6-US23 @ SLM 11.2 (200005) Status Air Temp Sfc Temp Sub Temp Dew Temp Wind Precip Traffic Updated
Sensor [A]: Atmospheric - 18.5 - - 9.7 5.6 / S - - 11/21/2014 9:12:27 PM
Sensor [0]: US23 NB Driving Lane Bridge Deck Dry - 22.1 - - - - 1 / 9.9 11/21/2014 9:12:27 PM
7-US30 Bypass @ SR4 (200006) Status Air Temp Sfc Temp Sub Temp Dew Temp Wind Precip Traffic Updated
Sensor [A]: Atmospheric - 19.6 - - 10.6 6.2 / S - - 11/21/2014 9:11:28 PM
Sensor [0]: US30 East Bound Driving Lane Dry - - - - - - 20 / 60.9 11/21/2014 9:11:28 PM
Sensor [1]: US30 West Bound Driving Lane Dry - - - - - - 80 / 158.4 11/21/2014 9:11:28 PM
8-Huron County Garage (200007) Status Air Temp Sfc Temp Sub Temp Dew Temp Wind Precip Traffic Updated
Sensor [A]: Atmospheric - 18.5 - - 9.1 3.1 / SE - - 11/21/2014 9:11:07 PM
Sensor [1]: US250 SB Lane Dry - 24.8 - - - - 4 / 44.1 11/21/2014 9:11:07 PM
9-I77 MM 109 @ Belden Village (200008) Status Air Temp Sfc Temp Sub Temp Dew Temp Wind Precip Traffic Updated
Sensor [A]: Atmospheric - 19.4 - - 10.4 0.6 / W - - 11/21/2014 9:11:52 PM
Sensor [0]: Ramp Bridge over I-77 Dry - - 38.3 - - - 0 / 9.9 11/21/2014 9:11:52 PM
Sensor [1]: Bridgedeck over I-77 Dry - - - - - - 0 / 9.9 11/21/2014 9:11:52 PM
10-SR5@SR45 (200009) Status Air Temp Sfc Temp Sub Temp Dew Temp Wind Precip Traffic Updated
Sensor [A]: Atmospheric - 18.5 - - 8.1 2.5 / SE - - 11/21/2014 9:10:29 PM
Sensor [0]: EB Driving Dry - 17.6 34.7 - - - - 11/21/2014 9:10:29 PM
Sensor [1]: SR5 EB Passing Dry - 16.7 - - - - - 11/21/2014 9:10:29 PM
Sensor [3]: SR5 EB passing Bridgedeck Dry - - - - - - - 11/21/2014 9:10:29 PM
11-SR36@SR206 (200010) Status Air Temp Sfc Temp Sub Temp Dew Temp Wind Precip Traffic Updated
Sensor [A]: Atmospheric - 19.2 - - 8.1 3.1 / SE - - 11/21/2014 9:11:14 PM
Sensor [0]: US36 EB Dry - 16.7 - - - - - 11/21/2014 9:11:14 PM
Sensor [1]: US36 WB Dry - - - - - - - 11/21/2014 9:11:14 PM
12- US 33 @ MM 11.5 (200011) Status Air Temp Sfc Temp Sub Temp Dew Temp Wind Precip Traffic Updated
Sensor [A]: Atmospheric - 16.9 - - 10.4 - - - 11/21/2014 9:03:26 PM
Sensor [0]: US33 EB Driving Dry - 23.9 37.9 - - - - 11/21/2014 9:03:26 PM
Sensor [1]: US33 WB Driving Lane Bridgedeck Dry - 21.7 - - - - - 11/21/2014 9:03:26 PM
13-Knox County Garage (200012) Status Air Temp Sfc Temp Sub Temp Dew Temp Wind Precip Traffic Updated
Sensor [A]: Atmospheric - 21.4 - - 13.5 0.6 / SE - - 11/21/2014 9:11:53 PM
Sensor [0]: SR-3 NB Driving Dry - 31.1 43.7 - - - 0 / 9.9 11/21/2014 9:11:53 PM
Sensor [1]: SR-3 SB Driving Dry - 31.1 - - - - 0 / 9.9 11/21/2014 9:11:53 PM
14-SR13@CR26N/Sheridan Rd (200013) Status Air Temp Sfc Temp Sub Temp Dew Temp Wind Precip Traffic Updated
Sensor [A]: Atmospheric - 14.7 - - 9.9 - - - 11/21/2014 9:11:57 PM
Sensor [0]: SR13 Eastbound Dry - 25.7 - - - - - 11/21/2014 9:11:57 PM
Sensor [1]: SR13 Westbound Dry - 25.7 - - - - - 11/21/2014 9:11:57 PM
15-US35 @ SR62 (200014) Status Air Temp Sfc Temp Sub Temp Dew Temp Wind Precip Traffic Updated
Sensor [A]: Atmospheric - 23.4 - - -0.6 1.9 / SE Snow / 0.0 - 11/21/2014 9:12:51 PM
Sensor [0]: US35 EB Driving Dry - 22.1 - - - - - 11/21/2014 9:12:51 PM
Sensor [1]: US35 WB Driving Dry - 22.1 - - - - - 11/21/2014 9:12:51 PM
Sensor [2]: SR62 NB Bridgedeck Dry - 18.5 - - - - - 11/21/2014 9:12:51 PM
Sensor [4]: US35 EB Driving Dry - - - - - - - 11/21/2014 9:12:51 PM
16-SR-752 @ 1.3 Pickaway County (200015) Status Air Temp Sfc Temp Sub Temp Dew Temp Wind Precip Traffic Updated
Sensor [A]: Atmospheric - 17.2 - - 10.4 - - - 11/21/2014 9:10:51 PM
17-US23 @ E. Fairground Road Overpass (200016) Status Air Temp Sfc Temp Sub Temp Dew Temp Wind Precip Traffic Updated
Sensor [A]: Atmospheric - 20.3 - - 10.6 5.6 / SW - - 11/21/2014 9:01:04 PM
Sensor [0]: US23 NorthBound Passing Approach No Report - - - - - - - 11/21/2014 9:01:04 PM
Sensor [1]: US23 SouthBound Passing Bridgedeck No Report - - - - - - 34 / 57.2 11/21/2014 9:01:04 PM
18-US33 @ SR739 (200017) Status Air Temp Sfc Temp Sub Temp Dew Temp Wind Precip Traffic Updated
Sensor [A]: Atmospheric - 17.6 - - 10.2 4.3 / W - - 11/21/2014 9:01:08 PM
Sensor [1]: US33 EB Passing Ice Watch - 16.7 - - - - - 11/21/2014 9:01:08 PM
Sensor [2]: US33 WB Passing Ice Watch - 16.7 - - - - - 11/21/2014 9:01:08 PM
Sensor [3]: US33 WB Driving Dry - 25.7 - - - - - 11/21/2014 9:01:08 PM
Sensor [5]: US33 EB Driving Shade Dry - 27.5 - - - - - 11/21/2014 9:01:08 PM
19-US68 @ SLM 1.4 (200018) Status Air Temp Sfc Temp Sub Temp Dew Temp Wind Precip Traffic Updated
Sensor [A]: Atmospheric - 18.9 - - 11.5 1.9 / SW - - 11/21/2014 9:06:06 PM
Sensor [0]: US68 SB Driving Lane Dry - 23.7 27.5 - - - - 11/21/2014 9:06:06 PM
Sensor [1]: US68 NB Driving Lane Dry - 25.3 - - - - - 11/21/2014 9:06:06 PM
Sensor [2]: US68 NB Driving Lane Bridgedeck Dry - 25.5 - - - - - 11/21/2014 9:06:06 PM
20-SR502 @ SLM 0.5 (200019) Status Air Temp Sfc Temp Sub Temp Dew Temp Wind Precip Traffic Updated
Sensor [A]: Atmospheric - 19.9 - - 11.3 9.3 / NE - - 11/21/2014 9:12:19 PM
Sensor [0]: SR502 EB Lane Dry - - 36.5 - - - 0 / 9.9 11/21/2014 9:12:19 PM
21-US33 @ SR540 (200020) Status Air Temp Sfc Temp Sub Temp Dew Temp Wind Precip Traffic Updated
Sensor [A]: Atmospheric - 21.0 - - 8.6 6.8 / SE - - 11/21/2014 8:48:48 PM
Sensor [0]: US-33 East Bound Driving Lane Dry - 25.7 36.5 - - - 3 / 55.9 11/21/2014 8:48:48 PM
Sensor [1]: US-33 West Bound Passing Lane Dry - 25.7 - - - - 0 / 52.2 11/21/2014 8:48:48 PM
22-SR29 @ SLM 0.8 (200021) Status Air Temp Sfc Temp Sub Temp Dew Temp Wind Precip Traffic Updated
Sensor [A]: Atmospheric - 57.9 - - 50.0 - - - 9/18/2014 8:22:00 AM
Sensor [0]: SR29 EB Lane Error - - 74.1 - - - 0 / 5.0 9/18/2014 8:22:00 AM
Sensor [1]: SR29 WB Lane Error - - - - - - 1 / 5.0 9/18/2014 8:22:00 AM
23-SR41 @ SR136 Adams County (200022) Status Air Temp Sfc Temp Sub Temp Dew Temp Wind Precip Traffic Updated
Sensor [A]: Atmospheric - 22.3 - - 11.5 - - - 11/21/2014 9:13:10 PM
Sensor [0]: SR136 NB Lane Dry - 21.2 40.1 - - - - 11/21/2014 9:13:10 PM
Sensor [1]: SR136 SB Lane Dry - 21.2 - - - - - 11/21/2014 9:13:10 PM
24-US68@SR125 (200023) Status Air Temp Sfc Temp Sub Temp Dew Temp Wind Precip Traffic Updated
Sensor [A]: Atmospheric - 25.5 - - -23.4 - - - 11/21/2014 8:46:40 PM
Sensor [0]: NB US68 Dry - 23.9 - - - - - 11/21/2014 8:46:40 PM
Sensor [1]: SB US68 Dry - - - - - - - 11/21/2014 8:46:40 PM
25-Highland County Garage (200024) Status Air Temp Sfc Temp Sub Temp Dew Temp Wind Precip Traffic Updated
Sensor [A]: Atmospheric - 21.7 - - 10.0 - - - 11/21/2014 9:12:46 PM
26-SR32 @ US35 (200025) Status Air Temp Sfc Temp Sub Temp Dew Temp Wind Precip Traffic Updated
Sensor [A]: Atmospheric - 19.8 - - 13.1 - - - 11/21/2014 9:12:47 PM
Sensor [0]: US 35 WB Driving Lane Dry - 22.1 - - - - 13 / 62.8 11/21/2014 9:12:47 PM
Sensor [1]: US 35 EB Driving Lane Dry - 21.2 - - - - 17 / 57.8 11/21/2014 9:12:47 PM
Sensor [2]: SR32 Eastbound Driving Lane Bridgedeck Dry - 22.1 - - - - 12 / 52.2 11/21/2014 9:12:47 PM
27-US52 @ Ice Creek (200026) Status Air Temp Sfc Temp Sub Temp Dew Temp Wind Precip Traffic Updated
Sensor [A]: Atmospheric - 23.2 - - 15.8 1.9 / E - - 11/21/2014 9:11:49 PM
Sensor [0]: SR52 EB Driving Approach Dry - - 43.7 - - - 0 / 9.9 11/21/2014 9:11:49 PM
Sensor [1]: SR52 WB Driving Bridgedeck Dry - - - - - - 0 / 9.9 11/21/2014 9:11:49 PM
28-US23 @ SLM 6.5 (200027) Status Air Temp Sfc Temp Sub Temp Dew Temp Wind Precip Traffic Updated
Sensor [A]: Atmospheric - 20.8 - - 14.7 1.2 / S - - 11/21/2014 9:11:07 PM
Sensor [0]: US23 NB Driving Dry - 29.3 42.1 - - - - 11/21/2014 9:11:07 PM
Sensor [1]: US23 SB Driving Dry - 29.7 - - - - - 11/21/2014 9:11:07 PM
29-US35 @ MM 14.76 (200028) Status Air Temp Sfc Temp Sub Temp Dew Temp Wind Precip Traffic Updated
Sensor [A]: Atmospheric - 19.9 - - 14.4 1.9 / SW - - 11/21/2014 9:12:19 PM
Sensor [0]: SR35 EB Driving Dry - 114.8 - - - - 35 / 62.8 9/8/2014 1:47:00 PM
Sensor [1]: SR35 WB Passing Error - - - - - - 0 / 47.2 9/8/2014 1:47:00 PM
Sensor [2]: SR35 WB Driving Dry - 68.0 - - - - 1 / 52.2 9/8/2014 1:47:00 PM
Sensor [3]: Bridge Deck Simulator Error - - 50.4 - - - 0 / 55.9 9/8/2014 1:47:00 PM
30-US23 @ SLM 9.2 (200029) Status Air Temp Sfc Temp Sub Temp Dew Temp Wind Precip Traffic Updated
Sensor [A]: Atmospheric - 21.2 - - 13.5 0.6 / SE - - 11/21/2014 9:11:15 PM
Sensor [0]: US23 NB Driving Dry - 31.1 - - - - 0 / 9.9 11/21/2014 9:11:15 PM
Sensor [1]: US23 SB Driving Dry - 31.1 43.7 - - - 0 / 9.9 11/21/2014 9:11:15 PM
31-USR 50 MM 17.68 (200030) Status Air Temp Sfc Temp Sub Temp Dew Temp Wind Precip Traffic Updated
Sensor [A]: Atmospheric - 20.3 - - 14.7 - - - 11/21/2014 9:10:32 PM
Sensor [0]: US50 EB Driving Dry - - - - - - - 11/21/2014 9:10:32 PM
Sensor [1]: US50 WB Driving Dry - - - - - - - 11/21/2014 9:10:32 PM
32-USR 35 @ SR 160 (200031) Status Air Temp Sfc Temp Sub Temp Dew Temp Wind Precip Traffic Updated
Sensor [A]: Atmospheric - 19.8 - - 14.0 - - - 11/21/2014 9:10:33 PM
Sensor [0]: SR35 NB Driving Dry - 29.3 - - - - - 11/21/2014 9:10:33 PM
33-US33@mm9.2 (200032) Status Air Temp Sfc Temp Sub Temp Dew Temp Wind Precip Traffic Updated
Sensor [A]: Atmospheric - 18.3 - - 13.3 0.6 / S - - 11/21/2014 9:11:59 PM
Sensor [0]: US33 EB Driving Dry - 18.5 - - - - - 11/21/2014 9:11:59 PM
Sensor [1]: US33 EB Driving Bridgedeck Dry - 41.9 - - - - - 11/21/2014 9:11:59 PM
34-US33 @ OH7 (200033) Status Air Temp Sfc Temp Sub Temp Dew Temp Wind Precip Traffic Updated
Sensor [A]: Atmospheric - 21.9 - - 12.7 - - - 11/21/2014 9:13:05 PM
Sensor [0]: US-33 EB Driving Departure Dry - 22.1 38.3 - - - - 11/21/2014 9:13:05 PM
Sensor [1]: US-33 EB Passing Bridgedeck Dry - 18.5 - - - - - 11/21/2014 9:13:05 PM
Sensor [2]: US-33 WB Driving Approach Dry - 23.0 - - - - - 11/21/2014 9:13:05 PM
35-SR7 @ SLM12.7 (200034) Status Air Temp Sfc Temp Sub Temp Dew Temp Wind Precip Traffic Updated
Sensor [A]: Atmospheric - 21.4 - - 13.6 - - - 11/21/2014 9:13:03 PM
Sensor [0]: SR7 NB Driving Lane Dry - - 45.5 - - - - 11/21/2014 9:13:03 PM
Sensor [1]: SR7 SB Driving Lane Dry - - - - - - - 11/21/2014 9:13:03 PM
36-SR60 @ Monestary Rd (200035) Status Air Temp Sfc Temp Sub Temp Dew Temp Wind Precip Traffic Updated
Sensor [A]: Atmospheric - 25.7 - - 8.8 3.7 / SE - - 11/21/2014 9:13:01 PM
Sensor [0]: SR60 EB Lane Dry - 22.1 38.3 - - - - 11/21/2014 9:13:01 PM
Sensor [1]: SR60 WB Lane Dry - 21.2 - - - - - 11/21/2014 9:13:01 PM
37-SR32@SR160 (200036) Status Air Temp Sfc Temp Sub Temp Dew Temp Wind Precip Traffic Updated
Sensor [A]: Atmospheric - 18.9 - - 14.2 - - - 11/21/2014 9:12:01 PM
Sensor [0]: SR32 WB Passing Bridgedeck Ice Watch - 16.0 - - - - - 11/21/2014 9:12:01 PM
Sensor [1]: SR32 EB Driving Dry - 27.5 - - - - - 11/21/2014 9:12:01 PM
Sensor [2]: SR32 WB Driving Bridgedeck Dry - 25.7 - - - - - 11/21/2014 9:12:01 PM
38-SR43@SR9 (200037) Status Air Temp Sfc Temp Sub Temp Dew Temp Wind Precip Traffic Updated
Sensor [A]: Atmospheric - 19.8 - - 8.4 1.2 / S - - 11/21/2014 9:00:55 PM
Sensor [0]: SR43 NB Dry - - 34.7 - - - - 11/21/2014 9:00:55 PM
Sensor [1]: SR9 SB Dry - - - - - - - 11/21/2014 9:00:55 PM
39-SR11@SR267 (200038) Status Air Temp Sfc Temp Sub Temp Dew Temp Wind Precip Traffic Updated
Sensor [A]: Atmospheric - 14.2 - - 8.1 - - - 11/21/2014 9:10:30 PM
Sensor [0]: SR11 NB Driving Dry - - 40.1 - - - - 11/21/2014 9:10:30 PM
Sensor [1]: SR11 SB Driving Dry - - - - - - - 11/21/2014 9:10:30 PM
40-Clinton County Garage (200039) Status Air Temp Sfc Temp Sub Temp Dew Temp Wind Precip Traffic Updated
Sensor [A]: Atmospheric - 19.8 - - 12.7 - - - 11/21/2014 9:12:59 PM
41- SR62@SR206 (200042) Status Air Temp Sfc Temp Sub Temp Dew Temp Wind Precip Traffic Updated
Sensor [A]: Atmospheric - 20.8 - - 9.0 2.5 / SE - - 11/21/2014 9:11:06 PM
Sensor [0]: SR62 EB Dry - 16.7 - - - - 3 / 42.9 11/21/2014 9:11:06 PM
Sensor [1]: SR62 WB Dry - 17.6 - - - - 3 / 32.3 11/21/2014 9:11:06 PM
42- SR7@ SLM14.65 (200041) Status Air Temp Sfc Temp Sub Temp Dew Temp Wind Precip Traffic Updated
Sensor [A]: Atmospheric - 20.3 - - 13.6 3.7 / S - - 11/21/2014 9:00:56 PM
Sensor [0]: SR7 Passing Dry - 20.3 43.7 - - - - 11/21/2014 9:00:56 PM
Sensor [1]: SR7 NB Driving Dry - - - - - - - 11/21/2014 9:00:56 PM
Sensor [2]: SR7 SB Driving Dry - - - - - - - 11/21/2014 9:00:56 PM
51-I-70 @ 1.0 MM (200050) Status Air Temp Sfc Temp Sub Temp Dew Temp Wind Precip Traffic Updated
Sensor [A]: Atmospheric - 23.0 - - 10.0 3.7 / N - - 11/21/2014 9:10:53 PM
Sensor [0]: IR70 EB Driving Dry - - 38.3 - - - 56 / 62.1 11/21/2014 9:10:53 PM
Sensor [1]: IR70 WB Driving Dry - - - - - - 60 / 60.3 11/21/2014 9:10:53 PM
52-18 MM MOT/PRE (200051) Status Air Temp Sfc Temp Sub Temp Dew Temp Wind Precip Traffic Updated
Sensor [A]: Atmospheric - 14.7 - - 1.8 7.5 / E - - 11/21/2014 9:10:54 PM
Sensor [0]: IR70 WB Passing Dry - 21.2 - - - - 56 / 57.8 11/21/2014 9:10:54 PM
Sensor [1]: IR70 EB Driving Dry - - - - - - 0 / 62.1 11/21/2014 9:10:54 PM
Sensor [2]: IR70 WB Driving Dry - - 38.3 - - - 26 / 62.8 11/21/2014 9:10:54 PM
53-CLA-70 @ I675 ***Under Construction*** (200052) Status Air Temp Sfc Temp Sub Temp Dew Temp Wind Precip Traffic Updated
Sensor [A]: Atmospheric - 20.8 - - 10.6 2.5 / SE - - 11/21/2014 9:11:09 PM
54-IR70 MM 62 (200053) Status Air Temp Sfc Temp Sub Temp Dew Temp Wind Precip Traffic Updated
Sensor [A]: Atmospheric - 19.0 - - 9.3 3.1 / S - - 11/21/2014 9:12:21 PM
Sensor [0]: I70 EB Driving Dry - - 38.3 - - - 0 / 9.9 11/21/2014 9:12:21 PM
Sensor [1]: I70 WB Passing Dry - - - - - - 0 / 9.9 11/21/2014 9:12:21 PM
55-IR70 MM 142 (200054) Status Air Temp Sfc Temp Sub Temp Dew Temp Wind Precip Traffic Updated
Sensor [A]: Atmospheric - 16.7 - - 11.7 - - - 11/21/2014 9:10:56 PM
Sensor [0]: IR70 WB Passing Dry - 19.4 36.5 - - - 48 / 64.0 11/21/2014 9:10:56 PM
Sensor [1]: IR70 EB Driving Dry - 25.7 - - - - 35 / 39.8 11/21/2014 9:10:56 PM
56-IR70 MM 169 (200055) Status Air Temp Sfc Temp Sub Temp Dew Temp Wind Precip Traffic Updated
Sensor [A]: Atmospheric - 20.3 - - 9.3 1.2 / W - - 11/21/2014 9:07:09 PM
Sensor [0]: IR70 EB Driving Dry - 27.5 38.3 - - - 4 / 18.0 11/21/2014 9:07:09 PM
Sensor [1]: IR70 WB Driving Dry - 27.5 - - - - 25 / 62.8 11/21/2014 9:07:09 PM
57-IR70 MM 198 (200056) Status Air Temp Sfc Temp Sub Temp Dew Temp Wind Precip Traffic Updated
Sensor [A]: Atmospheric - 20.8 - - 9.7 1.9 / SE - - 11/21/2014 9:11:04 PM
Sensor [0]: IR70 EB Driving Dry - 23.0 34.7 - - - 40 / 57.2 11/21/2014 9:11:04 PM
Sensor [1]: IR70 EB Passing Dry - 21.2 - - - - 1 / 26.7 11/21/2014 9:11:04 PM
Sensor [2]: IR70 WB Passing Dry - 22.1 - - - - 20 / 57.8 11/21/2014 9:11:04 PM
58-IR470 MM 6 (200057) Status Air Temp Sfc Temp Sub Temp Dew Temp Wind Precip Traffic Updated
Sensor [A]: Atmospheric - 20.7 - - 12.4 1.9 / NW - - 11/21/2014 9:12:16 PM
59- US 127 @ SR 744 (200058) Status Air Temp Sfc Temp Sub Temp Dew Temp Wind Precip Traffic Updated
Sensor [A]: Atmospheric - 21.9 - - 10.8 0.6 / SE - - 11/21/2014 9:02:37 PM
Sensor [0]: US127 NB Bridgedeck Dry - 24.3 - - - - 55 / 64.0 11/21/2014 9:02:37 PM
Sensor [1]: US127 SB Bridgedeck Dry - 24.6 - - - - 31 / 70.8 11/21/2014 9:02:37 PM
60-IR71 MM 62 (200059) Status Air Temp Sfc Temp Sub Temp Dew Temp Wind Precip Traffic Updated
Sensor [A]: Atmospheric - 19.0 - - 10.2 3.7 / NE - - 11/21/2014 9:11:34 PM
Sensor [0]: IR71 SB Passing Ice Watch - 15.8 38.3 - - - 6 / 60.3 11/21/2014 9:11:34 PM
Sensor [2]: IR71 NB Driving Dry - 27.5 - - - - 0 / 9.9 11/21/2014 9:11:34 PM
Sensor [3]: IR71 NB Passing Bridgedeck Dry - 22.1 - - - - 0 / 9.9 11/21/2014 9:11:34 PM
61-IR71 MM 79 (200060) Status Air Temp Sfc Temp Sub Temp Dew Temp Wind Precip Traffic Updated
Sensor [A]: Atmospheric - 19.6 - - 9.5 1.9 / SW - - 11/21/2014 9:11:36 PM
Sensor [0]: IR71 NB Passing Dry - 22.1 26.6 - - - 24 / 65.2 11/21/2014 9:11:36 PM
Sensor [1]: IR71 SB Driving Chemically Wet - 23.0 - - - - 2 / 5.0 11/21/2014 9:11:36 PM
Sensor [2]: IR71 NB Driving Dry - 27.5 - - - - 0 / 9.9 11/21/2014 9:11:36 PM
62- Cemetary Rd. Over I-270 (200061) Status Air Temp Sfc Temp Sub Temp Dew Temp Wind Precip Traffic Updated
Sensor [A]: Atmospheric - 22.8 - - 10.8 1.9 / S - - 11/21/2014 9:11:00 PM
Sensor [1]: I270 NB Passing Dry - - - - - - 35 / 60.3 11/21/2014 9:11:00 PM
Sensor [2]: Cemetary Rd WB Passing Dry - - - - - - 0 / 59.0 11/21/2014 9:11:00 PM
63-I71 MM 144 ***Under Construction*** (200062) Status Air Temp Sfc Temp Sub Temp Dew Temp Wind Precip Traffic Updated
Sensor [A]: Atmospheric - 60.3 - - 47.3 6.2 / E - - 4/9/2013 8:12:09 AM
Sensor [0]: I71 NB Driving (Deck) Dry - 68.9 46.9 - - - 46 / 55.9 4/9/2013 8:12:09 AM
Sensor [1]: I71 NB Passing (Approach) Dry - 60.1 - - - - 0 / 5.0 4/9/2013 8:12:09 AM
Sensor [3]: I71 SB Driving (Departure) Dry - 63.3 - - - - 0 / 65.2 4/9/2013 8:12:09 AM
64-I71 MM 158 (200063) Status Air Temp Sfc Temp Sub Temp Dew Temp Wind Precip Traffic Updated
Sensor [A]: Atmospheric - 16.5 - - 9.5 1.9 / S - - 11/21/2014 9:12:02 PM
Sensor [0]: IR71 NB Driving Wet - - 38.3 - - - 0 / 9.9 11/21/2014 9:12:02 PM
Sensor [1]: IR71 SB Driving Dry - - - - - - 0 / 9.9 11/21/2014 9:12:02 PM
65-IR71 MM 174 (200064) Status Air Temp Sfc Temp Sub Temp Dew Temp Wind Precip Traffic Updated
Sensor [A]: Atmospheric - 19.4 - - 9.9 1.9 / SE - - 11/21/2014 9:12:10 PM
Sensor [0]: IR71 NB Driving Dry - 20.3 23.9 - - - 22 / 59.0 11/21/2014 9:12:10 PM
Sensor [2]: IR71 SB Center Dry - 21.2 - - - - 29 / 60.3 11/21/2014 9:12:10 PM
66-IR71 MM 195.55 (200065) Status Air Temp Sfc Temp Sub Temp Dew Temp Wind Precip Traffic Updated
Sensor [A]: Atmospheric - 12.2 - - 7.2 - - - 11/21/2014 9:11:02 PM
Sensor [0]: IR71 North Bound Driving Lane Dry - 17.6 38.3 - - - 4 / 55.3 11/21/2014 9:11:02 PM
Sensor [1]: IR71 South Bound Passing Lane Dry - 17.6 - - - - 0 / 54.1 11/21/2014 9:11:02 PM
Sensor [2]: IR71 South Bound Driving Lane Dry - - - - - - 0 / 21.7 11/21/2014 9:11:02 PM
67-IR71 MM 209 (200066) Status Air Temp Sfc Temp Sub Temp Dew Temp Wind Precip Traffic Updated
Sensor [A]: Atmospheric - 18.7 - - 9.5 3.1 / S - - 11/21/2014 9:12:13 PM
Sensor [0]: IR71 NB Driving Dry - - 36.5 - - - 0 / 9.9 11/21/2014 9:12:13 PM
Sensor [1]: IR71 SB Driving Bridgedeck Wet - - - - - - 0 / 9.9 11/21/2014 9:12:13 PM
68-IR271 @ IR77 (200067) Status Air Temp Sfc Temp Sub Temp Dew Temp Wind Precip Traffic Updated
Sensor [A]: Atmospheric - 18.9 - - 7.3 1.9 / S - - 11/21/2014 9:12:16 PM
Sensor [0]: I271 SB Passing Bridgedeck Dry - - - - - - 0 / 9.9 11/21/2014 9:12:16 PM
Sensor [1]: I271 NB Driving Trace Moisture - - - - - - 0 / 9.9 11/21/2014 9:12:16 PM
69-IR275 MM 21 (200068) Status Air Temp Sfc Temp Sub Temp Dew Temp Wind Precip Traffic Updated
Sensor [A]: Atmospheric - 24.8 - - 15.3 - - - 11/21/2014 9:11:38 PM
Sensor [0]: IR275 NB Driving Dry - 29.3 38.3 - - - 0 / 9.9 11/21/2014 9:11:38 PM
Sensor [1]: IR275 SB Driving Dry - 34.7 - - - - 0 / 9.9 11/21/2014 9:11:38 PM
70-IR275 HAM/CLER (200069) Status Air Temp Sfc Temp Sub Temp Dew Temp Wind Precip Traffic Updated
Sensor [A]: Atmospheric - 32.7 - - 7.9 2.5 / SW Snow / 0.0 - 11/21/2014 3:00:09 PM
71-I675 MONT/GRE (200070) Status Air Temp Sfc Temp Sub Temp Dew Temp Wind Precip Traffic Updated
Sensor [A]: Atmospheric - 20.7 - - 11.1 1.9 / NE - - 11/21/2014 9:11:10 PM
Sensor [0]: I675 NB Driving Dry - 38.3 38.3 - - - 46 / 60.9 11/21/2014 9:11:10 PM
Sensor [1]: I675 SB Driving Dry - 38.3 - - - - 97 / 62.8 11/21/2014 9:11:10 PM
72-18 MM BUT/HAM (200071) Status Air Temp Sfc Temp Sub Temp Dew Temp Wind Precip Traffic Updated
Sensor [A]: Atmospheric - 27.7 - - 12.2 3.1 / SE - - 11/21/2014 9:11:06 PM
Sensor [0]: IR75 NB Passing Dry - 29.3 41.9 - - - - 11/21/2014 9:11:06 PM
Sensor [1]: IR75 SB Driving Dry - 34.7 - - - - - 11/21/2014 9:11:06 PM
73-I75mm27.5 SB (200072) Status Air Temp Sfc Temp Sub Temp Dew Temp Wind Precip Traffic Updated
Sensor [A]: Atmospheric - 24.8 - - 10.0 1.2 / E - - 11/21/2014 9:01:06 PM
Sensor [0]: IR75 NB Driving Dry - 29.3 - - - - - 11/21/2014 9:01:06 PM
Sensor [1]: IR75 SB Driving Dry - 31.1 - - - - - 11/21/2014 9:01:06 PM
74-IR75 MM 40 (200073) Status Air Temp Sfc Temp Sub Temp Dew Temp Wind Precip Traffic Updated
Sensor [A]: Atmospheric - 23.4 - - 12.2 1.9 / S - - 11/21/2014 9:11:11 PM
Sensor [0]: IR75 NB Driving Dry - 27.5 38.3 - - - 26 / 14.3 11/21/2014 9:11:11 PM
Sensor [1]: IR75 SB Driving Dry - 29.3 - - - - 9 / 19.3 11/21/2014 9:11:11 PM
75-SR16@COS/MUS (200074) Status Air Temp Sfc Temp Sub Temp Dew Temp Wind Precip Traffic Updated
Sensor [A]: Atmospheric - 16.9 - - 10.9 - - - 11/21/2014 9:01:05 PM
76-IR75 MM 84 (200075) Status Air Temp Sfc Temp Sub Temp Dew Temp Wind Precip Traffic Updated
Sensor [A]: Atmospheric - 19.8 - - 10.4 0.6 / SE - - 11/21/2014 9:12:06 PM
Sensor [0]: IR75 North Bound Driving Lane Dry - 23.0 77.9 - - - 50 / 57.2 11/21/2014 9:12:06 PM
Sensor [1]: IR75 North Bound Passing Lane Dry - 22.1 - - - - 19 / 64.0 11/21/2014 9:12:06 PM
77-IR75 MM 105 (200076) Status Air Temp Sfc Temp Sub Temp Dew Temp Wind Precip Traffic Updated
Sensor [A]: Atmospheric - 19.8 - - 10.6 - - - 11/21/2014 9:11:18 PM
Sensor [0]: IR75 NB Driving Dry - 25.7 39.0 - - - 0 / 9.9 11/21/2014 9:11:18 PM
Sensor [1]: IR75 SB Driving Dry - 27.5 - - - - 0 / 9.9 11/21/2014 9:11:18 PM
78-IR75 MM 119 (200077) Status Air Temp Sfc Temp Sub Temp Dew Temp Wind Precip Traffic Updated
Sensor [A]: Atmospheric - 21.0 - - 10.9 1.9 / SE - - 11/21/2014 9:11:22 PM
Sensor [0]: IR75 NB Driving Ice Watch - 27.5 38.8 - - - 0 / 9.9 11/21/2014 9:11:22 PM
79-IR75 MM 141 (200078) Status Air Temp Sfc Temp Sub Temp Dew Temp Wind Precip Traffic Updated
Sensor [A]: Atmospheric - 19.4 - - 10.6 3.1 / SE - - 11/21/2014 9:12:29 PM
Sensor [0]: IR75 NB Driving Dry - 25.7 36.5 - - - 0 / 9.9 11/21/2014 9:12:29 PM
Sensor [1]: IR75 SB Driving Dry - 25.7 - - - - 0 / 9.9 11/21/2014 9:12:29 PM
80-IR77 MM 0 (200079) Status Air Temp Sfc Temp Sub Temp Dew Temp Wind Precip Traffic Updated
Sensor [A]: Atmospheric - 21.4 - - 14.7 0.6 / NE - - 11/21/2014 9:04:45 PM
Sensor [0]: I77 SB Driving Lane Dry - 30.9 - - - - - 11/21/2014 9:04:45 PM
81-IR77 MM 16 (200080) Status Air Temp Sfc Temp Sub Temp Dew Temp Wind Precip Traffic Updated
Sensor [A]: Atmospheric - 18.3 - - 13.1 0.6 / SE - - 11/21/2014 9:05:51 PM
Sensor [0]: IR77 SB Driving Dry - 27.3 - - - - - 11/21/2014 9:05:51 PM
82-IR77 MM 36 (200081) Status Air Temp Sfc Temp Sub Temp Dew Temp Wind Precip Traffic Updated
Sensor [A]: Atmospheric - 18.0 - - 12.4 1.2 / S - - 11/21/2014 9:12:36 PM
Sensor [0]: IR77 SB Driving No Report - - - - - - 27 / 64.0 11/21/2014 9:12:36 PM
Sensor [1]: IR77 NB Driving No Report - - - - - - 0 / 52.8 11/21/2014 9:12:36 PM
83-IR77 MM 59 (200082) Status Air Temp Sfc Temp Sub Temp Dew Temp Wind Precip Traffic Updated
Sensor [A]: Atmospheric - 18.7 - - 10.4 - - - 11/21/2014 9:13:06 PM
Sensor [0]: IR77 NB Driving Dry - - 40.1 - - - 0 / 5.0 11/21/2014 9:13:06 PM
Sensor [1]: IR77 SB Driving Dry - - - - - - 0 / 5.0 11/21/2014 9:13:06 PM
84-IR77 MM 93 UNDER CONSTRUCTION (200083) Status Air Temp Sfc Temp Sub Temp Dew Temp Wind Precip Traffic Updated
Sensor [A]: Atmospheric - 14.7 - - 10.8 1.2 / S - - 11/21/2014 9:14:10 PM
Sensor [0]: IR77 North Bound Driving Lane No Report - - - - - - 0 / 52.8 9/24/2014 10:16:29 PM
Sensor [1]: IR77 North Bound Passing Lane Error - - - - - - 0 / 6.8 9/22/2014 9:50:39 AM
Sensor [2]: IR77 South Bound Passing Lane Bridge Error - - - - - - 0 / 9.9 9/22/2014 9:50:39 AM
Sensor [3]: IR77 South Bound Driving Lane Bridge Error - - - - - - 64 / 65.2 9/22/2014 9:50:39 AM
85-SR2 @ Huron River (200084) Status Air Temp Sfc Temp Sub Temp Dew Temp Wind Precip Traffic Updated
Sensor [A]: Atmospheric - 20.1 - - 10.4 1.2 / NE - - 11/21/2014 9:13:12 PM
Sensor [0]: SR2 WB Passing Dry - 16.0 38.3 - - - 8959 / 154.1 11/21/2014 9:13:12 PM
Sensor [1]: SR2 EB Driving Departure Wet - - - - - - 1 / 5.0 11/21/2014 9:13:12 PM
86-IR90 @ SR57 (200085) Status Air Temp Sfc Temp Sub Temp Dew Temp Wind Precip Traffic Updated
Sensor [A]: Atmospheric - 19.6 - - 9.7 3.1 / S - - 11/21/2014 9:03:47 PM
Sensor [0]: IR90 EB Driving No Report - - - - - - 34 / 6.2 11/21/2014 9:03:47 PM
Sensor [1]: IR90 WB Driving Dry - 22.8 - - - - 0 / 5.0 11/21/2014 9:03:47 PM
87-IR90 ATB/LAKE (200086) Status Air Temp Sfc Temp Sub Temp Dew Temp Wind Precip Traffic Updated
Sensor [A]: Atmospheric - 13.5 - - 7.9 - - - 11/21/2014 9:13:13 PM
Sensor [0]: I90 EB Passing Chemically Wet - 16.0 34.7 - - - 92 / 62.1 11/21/2014 9:13:13 PM
Sensor [1]: I90 EB Driving Wet - - - - - - 2 / 5.0 11/21/2014 9:13:13 PM
Sensor [2]: I90 WB Passing Dry - - - - - - 52 / 59.0 11/21/2014 9:13:13 PM
88-IR90 @ SR11 (200087) Status Air Temp Sfc Temp Sub Temp Dew Temp Wind Precip Traffic Updated
Sensor [A]: Atmospheric - 17.4 - - 9.7 1.2 / S - - 11/21/2014 9:05:32 PM
Sensor [0]: IR90 EB Passing Trace Moisture - 169.7 - - - - 0 / 158.4 11/21/2014 9:05:32 PM
Sensor [1]: IR90 WB Passing Dry - - - - - - 31 / 65.2 11/21/2014 9:05:32 PM
89-IR90 @ PA Line (200088) Status Air Temp Sfc Temp Sub Temp Dew Temp Wind Precip Traffic Updated
Sensor [A]: Atmospheric - 17.4 - - 9.7 1.2 / SW - - 11/21/2014 9:13:21 PM
Sensor [0]: IR90 EB Driving Bridgedeck Error - - 35.1 - - - - 11/21/2014 9:13:21 PM
Sensor [1]: IR90 EB Passing Error - - - - - - - 11/21/2014 9:13:21 PM
Sensor [2]: IR90 WB Passing Bridgedeck Error - - - - - - - 11/21/2014 9:13:21 PM
Sensor [3]: IR90 WB Driving Error - - - - - - - 11/21/2014 9:13:21 PM
90-IR80 @ PA Line (200089) Status Air Temp Sfc Temp Sub Temp Dew Temp Wind Precip Traffic Updated
Sensor [A]: Atmospheric - 15.8 - - 9.0 1.9 / E - - 11/21/2014 10:11:58 PM
Sensor [0]: IR80 EB Driving Dry - 21.6 37.9 - - - 21 / 49.1 11/21/2014 10:11:58 PM
Sensor [1]: IR80 WB Driving Trace Moisture - 21.9 - - - - 0 / 47.8 11/21/2014 10:11:58 PM
91-IR76 MAH/POR (200090) Status Air Temp Sfc Temp Sub Temp Dew Temp Wind Precip Traffic Updated
Sensor [A]: Atmospheric - 14.5 - - 8.1 1.2 / W - - 11/21/2014 9:13:15 PM
Sensor [1]: IR76 WB Passing Bridgedeck Trace Moisture - - - - - - 22 / 55.9 11/21/2014 9:13:15 PM
Sensor [2]: IR76 EB Driving Trace Moisture - - - - - - 17 / 64.0 11/21/2014 9:13:15 PM
Sensor [3]: IR76 WB Driving Bridgedeck Dry - - - - - - 43 / 64.0 11/21/2014 9:13:15 PM
92-IR76 POR/SUM (200091) Status Air Temp Sfc Temp Sub Temp Dew Temp Wind Precip Traffic Updated
Sensor [A]: Atmospheric - 13.1 - - 8.1 - - - 11/21/2014 9:11:03 PM
94-SR11 ATB/TRUM (200093) Status Air Temp Sfc Temp Sub Temp Dew Temp Wind Precip Traffic Updated
Sensor [A]: Atmospheric - 16.3 - - 13.5 0.6 / W - - 11/21/2014 3:34:38 AM
Sensor [0]: SR11 NB Driving No Report - - - - - - 22 / 64.0 11/21/2014 3:34:38 AM
Sensor [1]: SR11 SB Driving No Report - - - - - - 2 / 9.9 11/21/2014 3:34:38 AM
95-SR11 MAH/COL (200094) Status Air Temp Sfc Temp Sub Temp Dew Temp Wind Precip Traffic Updated
Sensor [A]: Atmospheric - 13.1 - - 7.2 - - - 11/21/2014 9:03:05 PM
Sensor [0]: SR11 NB Driving Wet - 22.5 34.7 - - - 0 / 64.0 11/21/2014 9:03:05 PM
Sensor [1]: SR11 SB Driving Dry - 22.8 - - - - 0 / 9.9 11/21/2014 9:03:05 PM
97-SR315 @ I270 (200096) Status Air Temp Sfc Temp Sub Temp Dew Temp Wind Precip Traffic Updated
Sensor [A]: Atmospheric - 22.1 - - 12.6 1.2 / SW - - 11/21/2014 9:10:07 PM
Sensor [0]: I270 WB Driving Dry - 22.1 - - - - 4 / 26.7 11/21/2014 9:10:07 PM
Sensor [1]: I270 WB Passing Dry - - - - - - 0 / 42.3 11/21/2014 9:10:07 PM
Sensor [2]: IR Ice Detection Sensor Dry - - - - - - 6 / 60.3 11/21/2014 9:10:07 PM
98-I270 SB Ramp to SR161 EB (200097) Status Air Temp Sfc Temp Sub Temp Dew Temp Wind Precip Traffic Updated
Sensor [A]: Atmospheric - 21.9 - - 8.8 1.9 / SW - - 11/21/2014 9:11:10 PM
Sensor [0]: SR161 WB Passing Bridgedeck Ice Watch - 16.7 - - - - 29 / 60.9 11/21/2014 9:11:10 PM
Sensor [1]: SR161 WB Driving Dry - 21.2 - - - - 0 / 50.3 11/21/2014 9:11:10 PM
Sensor [3]: I270 SB to SR161 EB Flyover Ramp Dry - 25.7 - - - - 106 / 57.8 11/21/2014 9:11:10 PM
99-US30 @ Dalton (200098) Status Air Temp Sfc Temp Sub Temp Dew Temp Wind Precip Traffic Updated
Sensor [A]: Atmospheric - 20.5 - - 17.6 - - - 11/21/2014 9:07:00 PM
Sensor [0]: US30E Driving Lane Error - - 61.3 - - - 0 / 50.3 11/21/2014 9:07:00 PM
Sensor [1]: US30E Passing Lane Ice Warning - 20.5 - - - - 4 / 59.0 11/21/2014 9:07:00 PM
Sensor [2]: US30W Passing Lane - Bridgedeck Ice Warning - 13.1 - - - - 4 / 55.9 11/21/2014 9:07:00 PM
Sensor [3]: US30W Driving Lane - Bridgedeck Error - - - - - - 761 / 62.1 11/21/2014 9:07:00 PM
100-SR225 @ Berlin Reservoir (200099) Status Air Temp Sfc Temp Sub Temp Dew Temp Wind Precip Traffic Updated
Sensor [A]: Atmospheric - 17.4 - - 8.8 - - - 11/21/2014 7:55:59 PM
Sensor [0]: SR225 NB Lane Trace Moisture - 24.1 36.1 - - - 0 / 65.2 11/21/2014 7:55:59 PM
Sensor [1]: SR225 SB Bridgedeck No Report - - - - - - 4 / 9.9 11/21/2014 7:55:59 PM
101-SR45 @ Rock Creek (200100) Status Air Temp Sfc Temp Sub Temp Dew Temp Wind Precip Traffic Updated
Sensor [A]: Atmospheric - 25.9 - - 16.5 - Snow / 0.0 - 11/21/2014 11:01:20 AM
102-SR7 @ SR167 East (200101) Status Air Temp Sfc Temp Sub Temp Dew Temp Wind Precip Traffic Updated
Sensor [A]: Atmospheric - 7.0 - - 4.1 - - - 11/21/2014 9:06:17 PM
Sensor [0]: SR7 NB Wet - 21.2 - - - - 6 / 42.3 11/21/2014 9:06:17 PM
Sensor [1]: SR7 SB Bridgedeck Wet - 17.8 - - - - 0 / 5.0 11/21/2014 9:06:17 PM
103- I-70 @ SR-79 (200102) Status Air Temp Sfc Temp Sub Temp Dew Temp Wind Precip Traffic Updated
Sensor [A]: Atmospheric - 18.5 - - 12.2 1.9 / NE - - 11/21/2014 9:11:08 PM
Sensor [1]: SR79 SB Bridgedeck Dry - 22.1 - - - - 36 / 50.3 11/21/2014 9:11:08 PM
Sensor [2]: IR70 EB Driving Dry - 27.5 - - - - 32 / 60.3 11/21/2014 9:11:08 PM
104-SR 3 KNOX/Ashland (200103) Status Air Temp Sfc Temp Sub Temp Dew Temp Wind Precip Traffic Updated
Sensor [A]: Atmospheric - 12.7 - - 8.8 1.9 / SE - - 11/21/2014 9:12:56 PM
Sensor [0]: SR3 SB Dry - 25.2 34.9 - - - 2 / 52.2 11/21/2014 9:12:56 PM
105-IR70/IR75 (200104) Status Air Temp Sfc Temp Sub Temp Dew Temp Wind Precip Traffic Updated
Sensor [A]: Atmospheric - 23.4 - - 11.3 3.1 / SE - - 11/21/2014 9:11:07 PM
Sensor [0]: IR75 NB Driving Dry - - - - - - 12 / 60.3 11/21/2014 9:11:07 PM
106-SR39 @ Sugarcreek (200105) Status Air Temp Sfc Temp Sub Temp Dew Temp Wind Precip Traffic Updated
Sensor [A]: Atmospheric - 14.4 - - 8.8 0.6 / W - - 11/21/2014 9:12:29 PM
Sensor [0]: SR39 EB Lane Dry - 23.7 - - - - 6 / 51.0 11/21/2014 9:12:29 PM
Sensor [1]: SR39 WB Lane Dry - 23.4 36.1 - - - 131 / 47.8 11/21/2014 9:12:29 PM
107-US250 @ Ulrichsville (200106) Status Air Temp Sfc Temp Sub Temp Dew Temp Wind Precip Traffic Updated
Sensor [A]: Atmospheric - 17.1 - - 12.6 - - - 11/21/2014 9:13:08 PM
Sensor [0]: US250 EB Driving Dry - - 38.3 - - - 0 / 5.0 11/21/2014 9:13:08 PM
Sensor [1]: US250 WB Driving Dry - - - - - - 0 / 5.0 11/21/2014 9:13:08 PM
108-SR183 @ Minerva (200107) Status Air Temp Sfc Temp Sub Temp Dew Temp Wind Precip Traffic Updated
Sensor [A]: Atmospheric - 12.9 - - 9.7 - - - 11/21/2014 10:13:25 PM
Sensor [0]: SR183 NB Bridgedeck Trace Moisture - 18.9 32.4 - - - 9 / 70.8 11/21/2014 10:13:25 PM
Sensor [1]: SR183 SB Trace Moisture - 20.7 - - - - 4 / 9.9 11/21/2014 10:13:25 PM
109-SR22 @ SR151 (200108) Status Air Temp Sfc Temp Sub Temp Dew Temp Wind Precip Traffic Updated
Sensor [A]: Atmospheric - 15.3 - - 10.8 1.2 / NW - - 11/21/2014 9:13:09 PM
Sensor [1]: SR22W Passing Lane Ice Watch - 16.7 - - - - 2 / 73.9 11/21/2014 9:13:09 PM
110-SR7 @ SR213 (200109) Status Air Temp Sfc Temp Sub Temp Dew Temp Wind Precip Traffic Updated
Sensor [A]: Atmospheric - 14.9 - - 11.7 1.2 / S - - 11/21/2014 9:14:04 PM
Sensor [0]: SR7 NB Driving Dry - 23.2 40.1 - - - 6 / 42.3 11/21/2014 9:14:04 PM
111-I70 MM 114 (200110) Status Air Temp Sfc Temp Sub Temp Dew Temp Wind Precip Traffic Updated
Sensor [A]: Atmospheric - 22.5 - - 8.8 2.5 / W - - 11/21/2014 9:10:49 PM
112-USR 27 @ 21 MM (200111) Status Air Temp Sfc Temp Sub Temp Dew Temp Wind Precip Traffic Updated
Sensor [A]: Atmospheric - 21.4 - - 11.5 5.0 / S - - 11/21/2014 9:11:40 PM
Sensor [0]: SR27 NB Lane Dry - 22.1 41.2 - - - 13 / 55.9 11/21/2014 9:11:40 PM
Sensor [1]: SR27 SB Lane Dry - 21.2 - - - - 12 / 47.2 11/21/2014 9:11:40 PM
113-I-275 @ USR 52 (200112) Status Air Temp Sfc Temp Sub Temp Dew Temp Wind Precip Traffic Updated
Sensor [A]: Atmospheric - 24.3 - - 13.5 1.2 / S - - 11/21/2014 9:10:30 PM
Sensor [0]: I275 SB Driving Bridgedeck Dry - 25.7 - - - - 28 / 60.3 11/21/2014 9:10:30 PM
114-IR71 @ US36 (38000) Status Air Temp Sfc Temp Sub Temp Dew Temp Wind Precip Traffic Updated
Sensor [A]: Atmospheric - 20.8 - - 5.9 4.3 / N - - 11/21/2014 9:01:10 PM
Sensor [0]: I71 SB Driving Dry - 21.2 - - - - - 11/21/2014 9:01:10 PM
Sensor [1]: US36 WB Departure Dry - - - - - - - 11/21/2014 9:01:10 PM
Sensor [2]: US36 WB Bridge Dry - - - - - - - 11/21/2014 9:01:10 PM
115-IR71 @ Schrock Road (38001) Status Air Temp Sfc Temp Sub Temp Dew Temp Wind Precip Traffic Updated
Sensor [A]: Atmospheric - 19.4 - - 10.4 2.5 / E - - 11/21/2014 9:01:11 PM
Sensor [0]: Schrock Rd Approach Ice Watch - 25.3 - - - - - 11/21/2014 9:01:11 PM
Sensor [1]: Schrock Rd Bridgedeck Ice Watch - 21.7 - - - - - 11/21/2014 9:01:11 PM
116-IR70W @ I270 (38004) Status Air Temp Sfc Temp Sub Temp Dew Temp Wind Precip Traffic Updated
Sensor [A]: Atmospheric - - - - - 11.2 / NW - - 11/13/2014 10:20:52 AM
Sensor [0]: I-70 EB Drive Error - - - - - - - 11/13/2014 10:20:52 AM
117-IR70 @ SR29 (38005) Status Air Temp Sfc Temp Sub Temp Dew Temp Wind Precip Traffic Updated
Sensor [A]: Atmospheric - 19.8 - - 4.3 1.9 / SE - - 11/21/2014 9:01:31 PM
Sensor [0]: SR29 NB Bridgedeck Dry - - - - - - - 11/21/2014 9:01:31 PM
Sensor [1]: I70 EB Passing Dry - - - - - - - 11/21/2014 9:01:31 PM
Sensor [2]: I70 WB Driving Dry - 23.2 - - - - - 11/21/2014 9:01:31 PM
118-IR70/IR71/SR315 (38006) Status Air Temp Sfc Temp Sub Temp Dew Temp Wind Precip Traffic Updated
Sensor [A]: Atmospheric - 21.4 - - 7.3 1.9 / S - - 11/21/2014 8:54:54 PM
Sensor [0]: I70 WB to I71 SB Ramp Dry - 26.6 - - - - - 11/21/2014 8:54:54 PM
Sensor [1]: I70 EB to SR315 Ramp Dry - 21.2 - - - - - 11/21/2014 8:54:54 PM
Sensor [3]: I70 WB Driving Trace Moisture - - - - - - - 11/21/2014 8:54:54 PM
119-IR71S @ I270 (38007) Status Air Temp Sfc Temp Sub Temp Dew Temp Wind Precip Traffic Updated
Sensor [A]: Atmospheric - 33.1 - - 23.2 7.5 / N - - 1/20/2014 6:31:46 AM
Sensor [2]: I270 EB Passing Error - - - - - - - 1/20/2014 6:31:46 AM
120-US33 @ Hamilton Road (38010) Status Air Temp Sfc Temp Sub Temp Dew Temp Wind Precip Traffic Updated
Sensor [A]: Atmospheric - 21.2 - - 11.8 3.7 / N - - 11/21/2014 9:01:58 PM
Sensor [1]: US33 EB Passing Dry - - - - - - - 11/21/2014 9:01:58 PM
121-I-670 Over Airport Connector (38014) Status Air Temp Sfc Temp Sub Temp Dew Temp Wind Precip Traffic Updated
Sensor [A]: Atmospheric - 20.3 - - 6.1 3.1 / SE - - 11/21/2014 9:01:59 PM
Sensor [0]: Airport Connector Bridgedeck Ice Watch - 19.8 - - - - - 11/21/2014 9:01:59 PM
Sensor [1]: I670 EB Passing Dry - 22.5 - - - - - 11/21/2014 9:01:59 PM
Sensor [2]: I670 WB Passing Dry - 23.5 - - - - - 11/21/2014 9:01:59 PM
122-Medina Line Rd. Over I-271 (612000) Status Air Temp Sfc Temp Sub Temp Dew Temp Wind Precip Traffic Updated
Sensor [A]: Atmospheric - 12.4 - - 6.6 - - - 11/21/2014 9:00:09 PM
Sensor [0]: SB Bridge Dry - 16.5 - - - - - 11/21/2014 9:00:09 PM
Sensor [1]: SB Road Dry - - - - - - - 11/21/2014 9:00:09 PM
123-Steels Corner Rd. /Mud Creek (612003) Status Air Temp Sfc Temp Sub Temp Dew Temp Wind Precip Traffic Updated
Sensor [A]: Atmospheric - 19.4 - - 14.9 1.9 / S - - 11/21/2014 9:00:10 PM
Sensor [0]: WB Bridge Dry - 19.6 - - - - - 11/21/2014 9:00:10 PM
Sensor [1]: WB Road Dry - - - - - - - 11/21/2014 9:00:10 PM
124-Old Mill Rd. Over I-480 (612004) Status Air Temp Sfc Temp Sub Temp Dew Temp Wind Precip Traffic Updated
Sensor [A]: Atmospheric - 11.5 - - 8.1 - - - 11/21/2014 9:00:11 PM
125-Ridgewood Rd. Over Rt 21 (612006) Status Air Temp Sfc Temp Sub Temp Dew Temp Wind Precip Traffic Updated
Sensor [A]: Atmospheric - 17.2 - - 9.3 - - - 11/21/2014 9:00:13 PM
Sensor [0]: EB Bridge Deck Wet - - - - - - - 11/21/2014 9:00:13 PM
126-Killian Rd. Over I-77 (612011) Status Air Temp Sfc Temp Sub Temp Dew Temp Wind Precip Traffic Updated
Sensor [A]: Atmospheric - 20.7 - - 6.1 4.3 / S - - 11/21/2014 9:00:15 PM
Sensor [0]: EB Bridge Dry - 19.6 34.9 - - - - 11/21/2014 9:00:15 PM
127-US 6 Williams County (582000) Status Air Temp Sfc Temp Sub Temp Dew Temp Wind Precip Traffic Updated
Sensor [A]: Atmospheric - 17.8 - - 11.8 4.3 / S - - 11/21/2014 9:10:17 PM
Sensor [2]: US6 EB Dry - 21.4 32.0 - - - - 11/21/2014 9:10:17 PM
128-US 20 @ SLM 1.5 ***Under Construction*** (582001) Status Air Temp Sfc Temp Sub Temp Dew Temp Wind Precip Traffic Updated
Sensor [A]: Atmospheric - 19.2 - - 11.3 5.6 / S - - 11/21/2014 9:10:19 PM
129-US 20 @ SLM 11.5 (582002) Status Air Temp Sfc Temp Sub Temp Dew Temp Wind Precip Traffic Updated
Sensor [A]: Atmospheric - 20.5 - - 14.0 3.7 / SE - - 11/21/2014 9:10:21 PM
Sensor [2]: SR-20A WB Approach Dry - 19.9 33.1 - - - - 11/21/2014 9:10:21 PM
Sensor [3]: SR-20A WB Deck Ice Watch - 17.4 - - - - - 11/21/2014 9:10:21 PM
130-US 20A @ SLM 2.5 Fulton (582003) Status Air Temp Sfc Temp Sub Temp Dew Temp Wind Precip Traffic Updated
Sensor [A]: Atmospheric - 18.0 - - -29.6 1.2 / S Snow / 0.0 - 11/21/2014 9:10:23 PM
Sensor [0]: US-20 EB Deck Dry - 18.0 - - - - - 11/21/2014 9:10:23 PM
Sensor [1]: US-20 EB Approach Dry - 23.0 - - - - - 11/21/2014 9:10:23 PM
131-US 20 @ SLM 9.5 Fulton (582004) Status Air Temp Sfc Temp Sub Temp Dew Temp Wind Precip Traffic Updated
Sensor [A]: Atmospheric - 17.1 - - - 5.6 / S - - 11/21/2014 9:10:25 PM
Sensor [0]: US-20 WB Deck Dry - 19.0 - - - - - 11/21/2014 9:10:25 PM
Sensor [1]: US-20 EB Approach Dry - 21.7 - - - - - 11/21/2014 9:10:25 PM
132-SR 64 @ SLM 6.0 Fulton (582005) Status Air Temp Sfc Temp Sub Temp Dew Temp Wind Precip Traffic Updated
Sensor [A]: Atmospheric - 17.4 - - 12.6 5.6 / SE - - 11/21/2014 9:10:26 PM
133-US 6 @ SLM .5 (582006) Status Air Temp Sfc Temp Sub Temp Dew Temp Wind Precip Traffic Updated
Sensor [A]: Atmospheric - 18.9 - - 12.9 6.2 / S - - 11/21/2014 9:10:28 PM
Sensor [0]: US-6 WB Dry - 21.0 46.2 - - - - 11/21/2014 9:10:28 PM
134-SR 108 @ SLM .5 (582007) Status Air Temp Sfc Temp Sub Temp Dew Temp Wind Precip Traffic Updated
Sensor [A]: Atmospheric - 19.0 - - 9.7 6.2 / S - - 11/21/2014 9:10:06 PM
Sensor [0]: SR-108 NB Ice Watch - 16.7 32.5 - - - - 11/21/2014 9:10:06 PM
135-US Rt 6 @ Maumee River (582008) Status Air Temp Sfc Temp Sub Temp Dew Temp Wind Precip Traffic Updated
Sensor [A]: Atmospheric - 26.8 - - 25.5 8.7 / SW - - 11/13/2014 9:20:08 PM
Sensor [0]: US-6 EB Deck Error - 24.3 - - - - - 11/13/2014 9:20:08 PM
Sensor [1]: US-6 WB Deck Error - - - - - - - 11/13/2014 9:20:08 PM
136-Rt 65 South Henry County (582009) Status Air Temp Sfc Temp Sub Temp Dew Temp Wind Precip Traffic Updated
Sensor [A]: Atmospheric - 13.5 - - 7.0 6.8 / S - - 11/21/2014 9:10:26 PM
Sensor [0]: SR-65 NB Ice Watch - 14.9 - - - - - 11/21/2014 9:10:26 PM
137 - SR 64 @ SLM 7.5 Lucas (582010) Status Air Temp Sfc Temp Sub Temp Dew Temp Wind Precip Traffic Updated
Sensor [A]: Atmospheric - 15.6 - - 12.6 - - - 11/21/2014 9:10:27 PM
Sensor [0]: SR-64 EB Approach Dry - 19.8 - - - - - 11/21/2014 9:10:27 PM
Sensor [1]: SR-64 EB @ RPU Dry - 19.6 - - - - - 11/21/2014 9:10:27 PM
138-US 24 near Grand Rapids (582011) Status Air Temp Sfc Temp Sub Temp Dew Temp Wind Precip Traffic Updated
Sensor [A]: Atmospheric - 20.5 - - 11.7 3.7 / N - - 11/21/2014 9:10:29 PM
Sensor [0]: SR-578 SB Maumee River Dry - 20.1 34.7 - - - - 11/21/2014 9:10:29 PM
Sensor [1]: SR-578 SB Dry - 22.3 - - - - - 11/21/2014 9:10:29 PM
139-I-80 & I-475 Lucas ***Under Construction*** (582012) Status Air Temp Sfc Temp Sub Temp Dew Temp Wind Precip Traffic Updated
Sensor [A]: Atmospheric - 72.1 - - 71.6 1.9 / SW - - 10/3/2013 11:40:42 AM
Sensor [0]: I-475 NB Deck Dry - 77.0 - - - - - 10/3/2013 11:40:42 AM
Sensor [1]: I-475 SB Approach Error - - - - - - - 10/3/2013 11:40:42 AM
140-IR 475 @ US 23 Split ***Under Construction*** (582013) Status Air Temp Sfc Temp Sub Temp Dew Temp Wind Precip Traffic Updated
Sensor [A]: Atmospheric - 21.6 - - 13.3 4.3 / S - - 11/21/2014 9:10:49 PM
141-IR 75 @ SLM 4.9 475 Split (582014) Status Air Temp Sfc Temp Sub Temp Dew Temp Wind Precip Traffic Updated
Sensor [A]: Atmospheric - 22.5 - - 17.6 5.6 / S - - 11/21/2014 9:10:07 PM
Sensor [1]: I-75 SB Dry - 20.3 - - - - - 11/21/2014 9:10:07 PM
142 - I-280 @ Veterans Glass City Skyway (VGCS) (582016) Status Air Temp Sfc Temp Sub Temp Dew Temp Wind Precip Traffic Updated
Sensor [A]: Atmospheric - 21.0 - - 11.3 7.5 / S Snow / 0.0 - 11/21/2014 9:10:11 PM
Sensor [1]: NB I-280 Center Lane Dry - 18.7 - - - - 37 / 60.3 11/21/2014 9:10:11 PM
Sensor [4]: SB I-280 Center Lane Dry - 17.8 - - - - 27 / 62.1 11/21/2014 9:10:11 PM
143-SR 2 @ MP 31.8 Lucas (582017) Status Air Temp Sfc Temp Sub Temp Dew Temp Wind Precip Traffic Updated
Sensor [A]: Atmospheric - 17.1 - - 10.0 6.2 / S - - 11/21/2014 9:10:13 PM
Sensor [0]: SR-2 EB Deck Dry - 16.7 - - - - - 11/21/2014 9:10:13 PM
144-IR 75 & Eagleville Rd. (582018) Status Air Temp Sfc Temp Sub Temp Dew Temp Wind Precip Traffic Updated
Sensor [A]: Atmospheric - 76.6 - - 63.0 4.3 / NE - - 8/18/2014 11:00:17 AM
Sensor [0]: I-75 NB Deck Error - - - - - - - 8/18/2014 11:00:17 AM
Sensor [1]: I-75 SB Deck Error - - - - - - - 8/18/2014 11:00:17 AM
145-IR 75 @ SLM 18.36 Wood (582019) Status Air Temp Sfc Temp Sub Temp Dew Temp Wind Precip Traffic Updated
Sensor [A]: Atmospheric - 80.8 - - 54.1 2.5 / E - - 8/7/2014 12:00:20 PM
Sensor [0]: I-75 NB Approach Error - 112.6 - - - - - 8/7/2014 12:00:20 PM
Sensor [1]: I-75 SB Deck Dry - 108.3 - - - - - 8/7/2014 12:00:20 PM
146-I-75 @ I-475 Wood ***Under Construction*** (582020) Status Air Temp Sfc Temp Sub Temp Dew Temp Wind Precip Traffic Updated
Sensor [A]: Atmospheric - 19.8 - - - 5.0 / S - - 11/21/2014 9:10:27 PM
147-I-75 @ I-80 Wood County (582021) Status Air Temp Sfc Temp Sub Temp Dew Temp Wind Precip Traffic Updated
Sensor [A]: Atmospheric - 19.0 - - 16.2 3.7 / S - - 11/21/2014 9:10:30 PM
Sensor [0]: I-75 NB Deck Dry - 20.5 - - - - - 11/21/2014 9:10:30 PM
Sensor [1]: I-75 SB Deck Error - - - - - - - 11/21/2014 9:10:30 PM
148-US-6 @ Rt. 23 (582022) Status Air Temp Sfc Temp Sub Temp Dew Temp Wind Precip Traffic Updated
Sensor [A]: Atmospheric - 19.9 - - 12.4 4.3 / S - - 11/21/2014 9:10:32 PM
Sensor [0]: US-6 EB Dry - - - - - - 0 / 9.9 11/21/2014 9:10:32 PM
Sensor [1]: US-23 NB Dry - - - - - - 0 / 9.9 11/21/2014 9:10:32 PM
149-US-20 @ Lemoyne Rd. (582023) Status Air Temp Sfc Temp Sub Temp Dew Temp Wind Precip Traffic Updated
Sensor [A]: Atmospheric - 23.5 - - 17.6 3.1 / S - - 11/21/2014 9:10:35 PM
Sensor [0]: US-20 EB Departure Dry - 18.5 - - - - 2 / 57.8 11/21/2014 9:10:35 PM
150-I-280 @ Libbey Rd. (582024) Status Air Temp Sfc Temp Sub Temp Dew Temp Wind Precip Traffic Updated
Sensor [A]: Atmospheric - 20.8 - - 11.8 6.8 / SE - - 11/21/2014 9:10:36 PM
151-SR 2 @ Portage River Bridge (582025) Status Air Temp Sfc Temp Sub Temp Dew Temp Wind Precip Traffic Updated
Sensor [A]: Atmospheric - 20.5 - - 11.8 5.0 / S Snow / 0.0 - 11/21/2014 9:10:38 PM
Sensor [0]: SR-2 EB Departure Dry - 23.4 36.7 - - - - 11/21/2014 9:10:38 PM
Sensor [1]: SR-2 WB Deck Dry - 19.9 - - - - - 11/21/2014 9:10:38 PM
152-SR-2@28.5 Bay Br. (582026) Status Air Temp Sfc Temp Sub Temp Dew Temp Wind Precip Traffic Updated
Sensor [A]: Atmospheric - 22.5 - - 21.2 6.2 / NE - - 11/21/2014 9:10:39 PM
Sensor [3]: SR2 EB Driving Lane - Bridge Deck Dry - 19.4 - - - - 0 / 0.0 11/21/2014 9:10:39 PM
153-US-20 @ Sugar Creek (582027) Status Air Temp Sfc Temp Sub Temp Dew Temp Wind Precip Traffic Updated
Sensor [A]: Atmospheric - 19.2 - - 12.7 5.0 / SE - - 11/21/2014 9:10:05 PM
Sensor [0]: US-20 EB Driving Dry - 18.5 25.7 - - - 9 / 52.2 11/21/2014 9:10:05 PM
Sensor [1]: US-20 WB Passing Ice Watch - 18.5 - - - - 0 / 0.0 11/21/2014 9:10:05 PM
154-US-6 @ Sandusky River Br (582028) Status Air Temp Sfc Temp Sub Temp Dew Temp Wind Precip Traffic Updated
Sensor [A]: Atmospheric - 20.1 - - 14.9 3.1 / SE - - 11/21/2014 9:10:08 PM
Sensor [0]: US-6 EB Approach Dry - 22.8 - - - - - 11/21/2014 9:10:08 PM
Sensor [1]: US-6 WB Deck Dry - 21.4 - - - - - 11/21/2014 9:10:08 PM
155-US 6 @ Pickeral Creek (582029) Status Air Temp Sfc Temp Sub Temp Dew Temp Wind Precip Traffic Updated
Sensor [A]: Atmospheric - -11.2 - - -14.4 6.2 / SW - - 11/21/2014 9:10:11 PM
Sensor [0]: US-6 WB Departure Error - - - - - - - 11/21/2014 9:10:11 PM
Sensor [1]: US-6 WB Deck Dry - -9.4 - - - - - 11/21/2014 9:10:11 PM
156-CR 296 & US 20 MP 31.0 (582030) Status Air Temp Sfc Temp Sub Temp Dew Temp Wind Precip Traffic Updated
Sensor [A]: Atmospheric - 16.0 - - 12.2 3.1 / S - - 11/21/2014 9:10:13 PM
Sensor [0]: US-20 WB Dry - 21.6 36.9 - - - - 11/21/2014 9:10:13 PM
157-US 23 @ MP 5.5 Seneca (582031) Status Air Temp Sfc Temp Sub Temp Dew Temp Wind Precip Traffic Updated
Sensor [A]: Atmospheric - 19.8 - - 10.9 7.5 / SE - - 11/21/2014 9:10:15 PM
Sensor [0]: US-23 NB Dry - 22.1 - - - - - 11/21/2014 9:10:15 PM
158-SR 12 @ Mp 7.0 Seneca (582032) Status Air Temp Sfc Temp Sub Temp Dew Temp Wind Precip Traffic Updated
Sensor [A]: Atmospheric - 17.4 - - 12.0 7.5 / SE - - 11/21/2014 9:10:17 PM
Sensor [0]: SR-12 WB Dry - 16.7 - - - - - 11/21/2014 9:10:17 PM
159-US 224 @ SR 53 Seneca (582033) Status Air Temp Sfc Temp Sub Temp Dew Temp Wind Precip Traffic Updated
Sensor [A]: Atmospheric - 19.6 - - 13.1 3.1 / SE - - 11/21/2014 9:10:19 PM
Sensor [0]: SR-224 EB Bridge Deck Ice Watch - 18.5 - - - - - 11/21/2014 9:10:19 PM
Sensor [1]: US-224 EB Approach Dry - 20.3 - - - - - 11/21/2014 9:10:19 PM
160-SR 4 @ MP 2.35 Seneca (582034) Status Air Temp Sfc Temp Sub Temp Dew Temp Wind Precip Traffic Updated
Sensor [A]: Atmospheric - 16.7 - - 6.3 7.5 / N - - 11/21/2014 9:10:21 PM
161-I-90 @ SR-252 (562000) Status Air Temp Sfc Temp Sub Temp Dew Temp Wind Precip Traffic Updated
Sensor [A]: Atmospheric - 19.8 - - 12.7 1.9 / S - - 11/21/2014 9:00:04 PM
162-I-90 @ Abbey Rd. (562001) Status Air Temp Sfc Temp Sub Temp Dew Temp Wind Precip Traffic Updated
Sensor [A]: Atmospheric - - - - - / Unknown - - -
Sensor [0]: I-90 EB N3 Lane Wet - 74.7 82.2 - - - - 8/20/2011 11:10:14 PM
Sensor [2]: I-90 WB N3 Lane Bridge Wet - 71.8 - - - - - 8/20/2011 11:10:14 PM
163-I-90 @ E. 140th (562002) Status Air Temp Sfc Temp Sub Temp Dew Temp Wind Precip Traffic Updated
Sensor [A]: Atmospheric - 27.3 - - 15.4 3.1 / SW - - 11/21/2014 3:00:25 PM
Sensor [1]: I-90 WB N3 Lane Bridge Wet - 36.7 - - - - - 11/21/2014 3:00:25 PM
Sensor [2]: I-90 EB N3 Lane Bridge Dry - 36.5 - - - - - 11/21/2014 3:00:25 PM
164-I-271 @ I-90 (562003) Status Air Temp Sfc Temp Sub Temp Dew Temp Wind Precip Traffic Updated
Sensor [A]: Atmospheric - 22.3 - - 16.9 1.2 / SE - - 11/21/2014 9:00:48 PM
Sensor [0]: I-271 NB TG I-90 EB Ice Watch - 21.4 - - - - - 11/21/2014 9:00:48 PM
Sensor [1]: I-90 EB N2 Lane Bridge Trace Moisture - - - - - - - 11/21/2014 9:00:48 PM
Sensor [2]: I-271 NB TG I-90 WB Bridge Dry - 18.9 - - - - - 11/21/2014 9:00:48 PM
Sensor [3]: I-271 NB TG I-90 WB Dry - 21.9 - - - - - 11/21/2014 9:00:48 PM
165-I-480 @ SR-10 (562004) Status Air Temp Sfc Temp Sub Temp Dew Temp Wind Precip Traffic Updated
Sensor [A]: Atmospheric - 11.3 - - 9.5 - - - 11/21/2014 9:00:49 PM
Sensor [0]: I-480 EB N2 Lane Bridge Dry - 17.6 - - - - - 11/21/2014 9:00:49 PM
Sensor [1]: I-480 WB N2 Lane Bridge Dry - 17.6 - - - - - 11/21/2014 9:00:49 PM
166-I-71 @ Snow Rd. (562005) Status Air Temp Sfc Temp Sub Temp Dew Temp Wind Precip Traffic Updated
Sensor [A]: Atmospheric - 18.1 - - 16.2 - - - 11/21/2014 9:00:51 PM
Sensor [0]: I-71 NB N3 Lane Bridge Dry - 20.8 - - - - - 11/21/2014 9:00:51 PM
Sensor [1]: I-71 SB N3 Lane Bridge Dry - 21.0 - - - - - 11/21/2014 9:00:51 PM
167-I-77 @ I-480 (562006) Status Air Temp Sfc Temp Sub Temp Dew Temp Wind Precip Traffic Updated
Sensor [A]: Atmospheric - 17.6 - - 14.4 - - - 11/21/2014 9:00:53 PM
Sensor [0]: I-77 NB N2L Br @ SR-17 Error - - - - - - - 11/21/2014 9:00:53 PM
Sensor [1]: I-77 SB N2L Br @ SR-17 Error - - - - - - - 11/21/2014 9:00:53 PM
Sensor [3]: I-77 NB RL Br over I-480 Dry - 17.6 - - - - - 11/21/2014 9:00:53 PM
168-I-480 N @ Miles Rd. (562007) Status Air Temp Sfc Temp Sub Temp Dew Temp Wind Precip Traffic Updated
Sensor [A]: Atmospheric - 16.3 - - 11.8 1.9 / NE - - 11/21/2014 9:10:06 PM
Sensor [0]: I-480 N WB N2 Lane Dry - 18.5 - - - - - 11/21/2014 9:10:06 PM
Sensor [1]: I-480 N WB N2 Lane Br Dry - 17.6 - - - - - 11/21/2014 9:10:06 PM
Sensor [2]: I-480 EB N2 Lane Br Dry - 17.6 - - - - - 11/21/2014 9:10:06 PM
169-I-271 @ US-322 (562008) Status Air Temp Sfc Temp Sub Temp Dew Temp Wind Precip Traffic Updated
Sensor [A]: Atmospheric - 19.4 - - 12.4 5.6 / SW - - 11/21/2014 9:10:16 PM
Sensor [0]: I-271 SB N2 Lane Br Dry - 19.4 - - - - - 11/21/2014 9:10:16 PM
Sensor [1]: I-271 SB N2 Lane Dry - 19.8 - - - - - 11/21/2014 9:10:16 PM
Sensor [2]: I-271 NB N2 Lane Br Dry - 20.3 - - - - - 11/21/2014 9:10:16 PM
Sensor [3]: I-271 NB N2 Lane Dry - 20.7 - - - - - 11/21/2014 9:10:16 PM
170-I-71 @ Drake Rd. (562009) Status Air Temp Sfc Temp Sub Temp Dew Temp Wind Precip Traffic Updated
Sensor [A]: Atmospheric - 19.0 - - 11.5 5.0 / S - - 11/21/2014 9:10:17 PM
Sensor [0]: I-71 NB N2 Lane Ice Watch - 20.8 33.3 - - - - 11/21/2014 9:10:17 PM
Sensor [1]: I-71 NB N2 Lane Br Dry - 18.0 - - - - - 11/21/2014 9:10:17 PM
Sensor [2]: I-71 SB N2 Lane Br Dry - 20.5 - - - - - 11/21/2014 9:10:17 PM
171-I-77 @ SR-82 (562010) Status Air Temp Sfc Temp Sub Temp Dew Temp Wind Precip Traffic Updated
Sensor [A]: Atmospheric - 12.2 - - 8.6 - - - 11/21/2014 9:10:20 PM
Sensor [1]: I-77 SB N2 Lane Br Dry - 15.8 - - - - - 11/21/2014 9:10:20 PM
172-US-422 @ Chagrin Blvd. (562011) Status Air Temp Sfc Temp Sub Temp Dew Temp Wind Precip Traffic Updated
Sensor [A]: Atmospheric - 11.5 - - 7.3 - - - 11/21/2014 8:50:14 PM
Sensor [0]: US-422 WB N2 Lane Dry - 19.8 36.9 - - - - 11/21/2014 8:50:14 PM
Sensor [1]: US-422 WB N2 Lane Br Dry - - - - - - - 11/21/2014 8:50:14 PM
Sensor [2]: US-422 EB N2 Lane Br Dry - 16.0 - - - - - 11/21/2014 8:50:14 PM
173-US-422 @ SR-44 (562012) Status Air Temp Sfc Temp Sub Temp Dew Temp Wind Precip Traffic Updated
Sensor [A]: Atmospheric - 13.5 - - 7.5 - - - 11/21/2014 9:10:39 PM
Sensor [0]: US-422 EB N2 Lane Bridge Dry - 14.0 - - - - - 11/21/2014 9:10:39 PM
174- SR-528 @SR-87 (562013) Status Air Temp Sfc Temp Sub Temp Dew Temp Wind Precip Traffic Updated
Sensor [A]: Atmospheric - 14.0 - - 10.8 3.1 / SW - - 11/21/2014 9:10:03 PM
Sensor [0]: SR528 NB Trace Moisture - - - - - - - 11/21/2014 9:10:03 PM
Sensor [1]: SR87 WB Ice Watch - 14.0 - - - - - 11/21/2014 9:10:03 PM
175-SR-44 @ Mentor Rd. (562014) Status Air Temp Sfc Temp Sub Temp Dew Temp Wind Precip Traffic Updated
Sensor [A]: Atmospheric - 17.2 - - 13.1 3.7 / S - - 11/21/2014 9:10:05 PM
Sensor [0]: SR44 NB Wet - - 34.7 - - - - 11/21/2014 9:10:05 PM
176-SR-528 @ SR-166 (562015) Status Air Temp Sfc Temp Sub Temp Dew Temp Wind Precip Traffic Updated
Sensor [A]: Atmospheric - 16.9 - - 8.1 5.6 / NW - - 11/21/2014 9:10:06 PM
Sensor [0]: SR-528 SB N of SR-166 Chemically Wet - 14.0 - - - - - 11/21/2014 9:10:06 PM
Sensor [1]: SR-166 WB W of SR-528 Chemically Wet - 14.0 - - - - - 11/21/2014 9:10:06 PM
177-I-90 @ Hermitage Rd. (562016) Status Air Temp Sfc Temp Sub Temp Dew Temp Wind Precip Traffic Updated
Sensor [A]: Atmospheric - 15.3 - - 15.3 1.2 / S - - 11/21/2014 9:10:07 PM
Sensor [0]: I-90 WB N2 Lane Br Error - - - - - - - 11/21/2014 9:10:07 PM
178-I-90 @ Paine Rd. (562017) Status Air Temp Sfc Temp Sub Temp Dew Temp Wind Precip Traffic Updated
Sensor [A]: Atmospheric - 63.9 - - 42.3 6.8 / E - - 5/3/2013 7:30:25 AM
Sensor [0]: I-90 WB N2 Lane Br Error - - - - - - - 5/3/2013 7:30:25 AM
179-US-20 @ Parmly Rd. (562018) Status Air Temp Sfc Temp Sub Temp Dew Temp Wind Precip Traffic Updated
Sensor [A]: Atmospheric - 16.0 - - 12.9 1.2 / S - - 11/21/2014 9:10:30 PM
Sensor [0]: US-20 WB N2 Lane Chemically Wet - 14.9 - - - - - 11/21/2014 9:10:30 PM
180-I270 @ US33 (38015) Status Air Temp Sfc Temp Sub Temp Dew Temp Wind Precip Traffic Updated
Sensor [A]: Atmospheric - 20.1 - - 16.0 1.2 / S - - 11/21/2014 9:10:05 PM
181-US32 @ Pike & Adams County Line (200180) Status Air Temp Sfc Temp Sub Temp Dew Temp Wind Precip Traffic Updated
Sensor [A]: Atmospheric - 28.2 - - 7.5 1.9 / NE - - 11/21/2014 9:02:01 PM
Sensor [0]: US32 EB Driving Dry - - - - - - 1 / 9.9 11/21/2014 9:02:01 PM
Sensor [1]: US32 WB Driving Dry - - - - - - 4 / 9.9 11/21/2014 9:02:01 PM
182-I71 @ SR665 Grove City Outpost (200181) Status Air Temp Sfc Temp Sub Temp Dew Temp Wind Precip Traffic Updated
Sensor [A]: Atmospheric - 22.1 - - 11.5 - - - 11/21/2014 9:11:55 PM
Sensor [0]: IR71 NB Driving Dry - 23.9 - - - - 18 / 60.3 11/21/2014 9:11:55 PM
183-US30 @ SR68 (200182) Status Air Temp Sfc Temp Sub Temp Dew Temp Wind Precip Traffic Updated
Sensor [A]: Atmospheric - 17.4 - - 10.9 9.9 / S - - 11/21/2014 9:12:44 PM
Sensor [0]: US30 EB Driving Ice Watch - 18.5 - - - - - 11/21/2014 9:12:44 PM
Sensor [1]: US30 WB Driving Bridgedeck Dry - 22.1 - - - - - 11/21/2014 9:12:44 PM
184 - I-71 at Red Bank (80000) Status Air Temp Sfc Temp Sub Temp Dew Temp Wind Precip Traffic Updated
Sensor [A]: Atmospheric - 26.2 - - -104.8 - - - 11/21/2014 9:10:41 PM
185 - River Road @ Kibby Lane ***Under Construction*** (80001) Status Air Temp Sfc Temp Sub Temp Dew Temp Wind Precip Traffic Updated
Sensor [A]: Atmospheric - 55.2 - - 43.5 2.5 / E - - 10/22/2014 1:50:40 PM
186-SR49 @ SR81 (200185) Status Air Temp Sfc Temp Sub Temp Dew Temp Wind Precip Traffic Updated
Sensor [A]: Atmospheric - 19.4 - - 11.8 1.2 / SE - - 11/21/2014 9:12:50 PM
Sensor [0]: SR81 Eastbound Approach Ice Watch - 17.6 - - - - - 11/21/2014 9:12:50 PM
Sensor [1]: SR81 Westbound Bridgedeck Ice Watch - 14.9 - - - - - 11/21/2014 9:12:50 PM
187-SR15 @ SR613 (200186) Status Air Temp Sfc Temp Sub Temp Dew Temp Wind Precip Traffic Updated
Sensor [A]: Atmospheric - 19.0 - - 11.7 4.3 / S - - 11/21/2014 9:00:09 PM
Sensor [0]: SR15 NB Lane Trace Moisture - 24.4 - - - - - 11/21/2014 9:00:09 PM
188-SR2 @ INDIANA LINE (200187) Status Air Temp Sfc Temp Sub Temp Dew Temp Wind Precip Traffic Updated
Sensor [A]: Atmospheric - 17.2 - - 10.4 1.9 / S - - 11/21/2014 9:11:30 PM
Sensor [0]: SR2 EB Lane Dry - 24.6 - - - - - 11/21/2014 9:11:30 PM